Latest Weather Observations for Toowoomba

IDQ60801

Issued at 8:22 pm EST Friday 20 July 2018 (issued every 10 minutes, with the page automatically refreshed every 10 minutes)

About weather observations | Map of weather stations | Latest weather observations for QLD | Other Formats
Station Details ID: 041529 Name: TOOWOOMBA AIRPORT Lat: -27.54 Lon: 151.91 Height: 640.9 m
Data from the previous 72 hours. | See also: Recent months at Toowoomba
Date/Time
EST
Temp
°C
App
Temp
°C
Dew
Point
°C
Rel
Hum
%
Delta-T
°C
Wind Press
QNH
hPa
Press
MSL
hPa
Rain since
9am
mm
Dir  Spd
km/h
Gust
km/h
Spd
kts
Gust
kts
20/08:00pm 11.8 3.2 0.0 44 5.0 WSW 35 44 19 24 1018.4 1018.0 0.8
20/07:30pm 12.2 4.5 0.0 43 5.2 WSW 30 39 16 21 1018.0 1017.5 0.8
20/07:00pm 13.1 5.8 -0.2 40 5.7 WSW 28 39 15 21 1018.0 1017.5 0.8
20/06:30pm 13.4 6.8 -0.6 38 6.0 WSW 24 32 13 17 1017.7 1017.2 0.8
20/06:00pm 14.5 8.3 0.0 37 6.3 WSW 22 28 12 15 1017.5 1017.0 0.8
20/05:30pm 15.7 8.0 2.2 40 6.2 WSW 32 48 17 26 1017.1 1016.5 0.8
20/05:21pm 16.9 10.2 3.6 41 6.4 W 28 48 15 26 1016.7 1016.2 0.8
20/05:00pm 16.7 12.3 7.6 55 4.7 W 20 28 11 15 1016.3 1015.8 0.8
20/04:30pm 17.2 11.8 9.6 61 4.1 W 28 35 15 19 1015.9 1015.4 0.8
20/04:00pm 17.1 12.4 10.7 66 3.5 WNW 26 39 14 21 1015.6 1015.0 0.8
20/03:30pm 17.0 12.3 10.8 67 3.4 WNW 26 35 14 19 1015.6 1015.0 0.8
20/03:00pm 17.3 11.5 10.7 65 3.6 WNW 32 44 17 24 1015.7 1015.1 0.8
20/02:30pm 17.5 12.9 11.1 66 3.6 WNW 26 39 14 21 1015.9 1015.4 0.8
20/02:00pm 16.3 11.7 11.2 72 2.8 WNW 26 35 14 19 1016.3 1015.8 0.8
20/01:30pm 16.1 10.8 11.1 72 2.8 WNW 30 41 16 22 1016.5 1016.0 0.8
20/01:00pm 15.9 11.8 11.3 74 2.6 WNW 24 32 13 17 1016.7 1016.2 0.8
20/12:30pm 15.7 10.8 11.3 75 2.4 WNW 28 41 15 22 1017.1 1016.5 0.8
20/12:00pm 15.5 11.1 11.7 78 2.1 NW 26 37 14 20 1017.6 1017.1 0.8
20/11:30am 15.0 11.1 12.0 82 1.7 NW 24 37 13 20 1018.0 1017.5 0.8
20/11:00am 13.4 10.4 12.6 95 0.4 NW 20 30 11 16 1018.4 1018.0 0.8
20/10:50am 13.4 9.8 12.0 91 0.8 NW 22 35 12 19 1018.8 1018.3 0.8
20/10:30am 13.8 10.4 11.3 85 1.4 WNW 20 28 11 15 1019.1 1018.6 0.0
20/10:00am 15.2 9.9 10.0 71 2.8 WNW 28 37 15 20 1019.3 1018.8 0.0
20/09:30am 15.6 9.9 9.7 68 3.2 NW 30 43 16 23 1019.4 1018.9 0.0
20/09:00am 15.4 9.9 9.3 67 3.2 NW 28 41 15 22 1019.3 1018.8 0.0
20/08:57am 15.4 10.3 9.3 67 3.2 NW 26 41 14 22 1019.3 1018.8 0.0
20/08:30am 13.6 10.9 9.1 74 2.4 NNW 13 19 7 10 1019.2 1018.7 0.0
20/08:00am 12.6 9.1 8.7 77 2.0 N 17 22 9 12 1019.1 1018.6 0.0
20/07:30am 12.1 8.5 8.4 78 1.9 N 17 22 9 12 1019.0 1018.5 0.0
20/07:00am 11.7 7.7 8.2 79 1.8 N 19 22 10 12 1019.0 1018.5 0.0
20/06:30am 11.2 7.8 7.7 79 1.8 N 15 20 8 11 1018.9 1018.4 0.0
20/06:00am 10.9 7.4 7.4 79 1.7 NNW 15 20 8 11 1018.6 1018.1 0.0
20/05:30am 11.0 6.7 7.1 77 1.9 N 19 26 10 14 1018.3 1017.8 0.0
20/05:00am 11.0 5.8 7.3 78 1.8 N 24 32 13 17 1018.0 1017.5 0.0
20/04:30am 10.9 5.3 7.2 78 1.8 N 26 35 14 19 1017.9 1017.4 0.0
20/04:00am 10.9 5.3 7.0 77 1.9 N 26 35 14 19 1018.1 1017.6 0.0
20/03:30am 10.9 5.6 6.8 76 2.0 N 24 33 13 18 1018.4 1018.0 0.0
20/03:00am 11.2 5.5 6.9 75 2.1 N 26 39 14 21 1018.2 1017.7 0.0
20/02:30am 11.3 6.0 6.6 73 2.3 N 24 35 13 19 1018.7 1018.2 0.0
20/02:00am 11.7 6.0 6.6 71 2.5 N 26 37 14 20 1019.0 1018.5 0.0
20/01:30am 11.7 7.1 6.6 71 2.5 N 20 35 11 19 1019.2 1018.7 0.0
20/01:00am 11.9 7.3 6.4 69 2.7 N 20 30 11 16 1019.5 1019.0 0.0
20/12:30am 11.7 6.9 5.6 66 2.9 N 20 28 11 15 1019.9 1019.5 0.0
20/12:00am 12.0 6.7 5.2 63 3.2 N 22 30 12 16 1020.0 1019.6 0.0
 
Date/Time
EST
Temp
°C
App
Temp
°C
Dew
Point
°C
Rel
Hum
%
Delta-T
°C
Wind Press
QNH
hPa
Press
MSL
hPa
Rain since
9am
mm
Dir  Spd
km/h
Gust
km/h
Spd
kts
Gust
kts
19/11:30pm 12.3 7.3 4.8 60 3.6 N 20 33 11 18 1020.1 1019.7 0.0
19/11:00pm 12.5 7.0 4.0 56 4.0 N 22 32 12 17 1020.1 1019.7 0.0
19/10:30pm 12.8 7.2 3.5 53 4.3 N 22 32 12 17 1020.3 1019.8 0.0
19/10:00pm 13.1 7.7 2.6 49 4.8 N 20 30 11 16 1020.1 1019.7 0.0
19/09:30pm 13.8 8.5 2.1 45 5.3 NNE 19 26 10 14 1020.4 1019.9 0.0
19/09:00pm 14.1 8.9 0.4 39 6.0 NNE 17 28 9 15 1020.5 1020.0 0.0
19/08:30pm 13.8 9.1 -1.8 34 6.5 NE 13 19 7 10 1020.6 1020.1 0.0
19/08:00pm 14.7 9.9 -2.2 31 7.0 NNE 13 17 7 9 1020.3 1019.8 0.0
19/07:30pm 15.4 10.2 -2.5 29 7.5 NNE 15 19 8 10 1020.0 1019.6 0.0
19/07:00pm 15.7 10.5 -2.7 28 7.6 NNE 15 22 8 12 1019.9 1019.5 0.0
19/06:30pm 16.0 11.2 -2.5 28 7.8 NE 13 19 7 10 1019.8 1019.4 0.0
19/06:00pm 15.6 11.4 -0.6 33 7.0 ENE 11 20 6 11 1019.6 1019.1 0.0
19/05:30pm 16.7 13.0 -0.1 32 7.5 ENE 9 13 5 7 1019.4 1018.9 0.0
19/05:00pm 17.6 12.8 0.3 31 7.8 E 15 19 8 10 1019.4 1018.9 0.0
19/04:30pm 18.9 13.8 1.0 30 8.3 E 17 20 9 11 1019.3 1018.8 0.0
19/04:00pm 20.2 15.7 -0.4 25 9.3 ENE 13 19 7 10 1019.2 1018.7 0.0
19/03:30pm 20.8 16.2 -1.1 23 9.9 NE 13 15 7 8 1019.3 1018.8 0.0
19/03:00pm 21.5 16.9 -4.5 17 11.0 N 11 17 6 9 1019.4 1018.9 0.0
19/02:30pm 21.5 17.0 -3.1 19 10.7 WNW 11 17 6 9 1019.5 1019.0 0.0
19/02:00pm 21.1 16.7 -2.7 20 10.4 NNE 11 22 6 12 1019.8 1019.4 0.0
19/01:30pm 20.8 15.4 -1.7 22 10.0 NNW 17 26 9 14 1020.4 1019.9 0.0
19/01:00pm 20.5 16.3 -0.7 24 9.6 WNW 11 22 6 12 1020.8 1020.3 0.0
19/12:30pm 19.8 15.2 -1.3 24 9.4 WNW 13 20 7 11 1021.4 1021.0 0.0
19/12:00pm 20.2 14.8 -1.0 24 9.5 NW 17 28 9 15 1022.1 1021.6 0.0
19/11:30am 19.2 13.9 -3.6 21 9.6 NW 15 20 8 11 1022.7 1022.3 0.0
19/11:00am 18.9 13.3 -2.7 23 9.2 NW 17 24 9 13 1023.3 1022.9 0.0
19/10:30am 18.4 13.6 -2.5 24 9.0 NW 13 20 7 11 1023.4 1023.0 0.0
19/10:00am 17.8 13.2 -1.4 27 8.3 NNW 13 20 7 11 1023.4 1023.0 0.0
19/09:30am 17.1 12.5 -1.1 29 7.9 NW 13 17 7 9 1023.6 1023.1 0.0
19/09:00am 16.1 12.1 -1.9 29 7.6 NNW 9 13 5 7 1023.6 1023.1 0.0
19/08:30am 15.4 11.5 -1.6 31 7.2 N 9 11 5 6 1023.6 1023.1 0.0
19/08:00am 13.8 10.1 0.1 39 5.9 N 9 11 5 6 1023.4 1023.0 0.0
19/07:30am 9.7 6.2 1.4 56 3.6 N 9 13 5 7 1023.3 1022.9 0.0
19/07:00am 9.8 5.8 0.2 51 4.0 N 11 13 6 7 1023.2 1022.8 0.0
19/06:30am 7.5 4.3 0.7 62 2.8 E 7 9 4 5 1023.0 1022.6 0.0
19/06:00am 9.6 6.2 -0.3 50 4.1 N 7 9 4 5 1022.8 1022.4 0.0
19/05:30am 10.8 6.8 0.8 50 4.3 N 11 13 6 7 1022.5 1022.1 0.0
19/05:00am 9.0 5.4 0.5 55 3.5 N 9 9 5 5 1022.3 1021.8 0.0
19/04:30am 10.7 6.7 0.7 50 4.3 N 11 13 6 7 1022.2 1021.7 0.0
19/04:00am 10.8 6.8 0.5 49 4.4 N 11 15 6 8 1022.5 1022.1 0.0
19/03:30am 10.8 6.5 0.8 50 4.3 N 13 15 7 8 1022.7 1022.3 0.0
19/03:00am 10.7 6.4 0.7 50 4.3 N 13 17 7 9 1022.9 1022.5 0.0
19/02:30am 10.8 6.4 0.5 49 4.4 N 13 17 7 9 1022.9 1022.5 0.0
19/02:00am 11.1 6.3 -0.1 46 4.7 N 15 17 8 9 1022.9 1022.5 0.0
19/01:30am 11.6 7.1 -0.5 43 5.1 N 13 15 7 8 1022.7 1022.3 0.0
19/01:00am 12.1 7.4 -1.8 38 5.7 N 13 15 7 8 1022.8 1022.4 0.0
19/12:30am 12.1 7.3 -2.5 36 5.9 N 13 13 7 7 1022.9 1022.5 0.0
19/12:00am 12.9 8.5 -2.2 35 6.2 N 11 13 6 7 1022.8 1022.4 0.0
 
Date/Time
EST
Temp
°C
App
Temp
°C
Dew
Point
°C
Rel
Hum
%
Delta-T
°C
Wind Press
QNH
hPa
Press
MSL
hPa
Rain since
9am
mm
Dir  Spd
km/h
Gust
km/h
Spd
kts
Gust
kts
18/11:30pm 9.7 5.9 -3.9 38 5.2 NNE 7 9 4 5 1023.0 1022.6 0.0
18/11:00pm 10.6 7.3 -4.2 35 5.6 NE 4 6 2 3 1023.0 1022.6 0.0
18/10:30pm 10.4 7.1 -4.8 34 5.7 NNE 4 7 2 4 1023.1 1022.7 0.0
18/10:00pm 13.2 8.8 -5.4 27 7.1 NNE 9 11 5 6 1023.1 1022.7 0.0
18/09:30pm 13.2 8.5 -4.9 28 7.0 NNE 11 13 6 7 1023.1 1022.7 0.0
18/09:00pm 12.8 8.8 -5.2 28 6.9 ESE 7 9 4 5 1022.8 1022.4 0.0
18/08:30pm 13.9 10.1 -5.8 25 7.5 S 6 7 3 4 1022.9 1022.5 0.0
18/08:00pm 13.2 10.6 -5.4 27 7.1 CALM 0 0 0 0 1022.9 1022.5 0.0
18/07:30pm 14.7 12.0 -5.6 24 7.9 CALM 0 0 0 0 1022.9 1022.5 0.0
18/07:00pm 15.1 12.1 -5.3 24 8.0 WSW 2 6 1 3 1022.7 1022.3 0.0
18/06:30pm 14.8 11.0 -5.5 24 7.9 W 6 7 3 4 1022.5 1022.1 0.0
18/06:00pm 16.4 13.8 -5.3 22 8.6 CALM 0 0 0 0 1022.4 1021.9 0.0
18/05:30pm 17.1 13.8 -4.8 22 8.8 WSW 4 7 2 4 1022.0 1021.5 0.0
18/05:00pm 18.3 14.5 -5.7 19 9.6 WSW 6 9 3 5 1021.7 1021.3 0.0
18/04:30pm 19.5 16.1 -5.4 18 10.2 WSW 4 11 2 6 1021.5 1021.1 0.0
18/04:00pm 20.4 16.0 -5.4 17 10.6 WSW 9 15 5 8 1021.5 1021.1 0.0
18/03:30pm 20.5 16.5 -6.1 16 10.8 W 7 17 4 9 1021.4 1021.0 0.0
18/03:00pm 20.7 16.9 -6.0 16 10.9 SW 6 15 3 8 1021.3 1020.9 0.0
18/02:30pm 19.6 15.1 -6.9 16 10.5 S 9 15 5 8 1021.3 1020.9 0.0
18/02:00pm 19.8 14.2 -6.7 16 10.5 SW 15 20 8 11 1021.5 1021.1 0.0
18/01:30pm 19.6 14.8 -6.1 17 10.4 SSW 11 20 6 11 1021.7 1021.3 0.0
18/01:00pm 19.5 13.5 -7.0 16 10.4 SSW 17 24 9 13 1022.1 1021.6 0.0
18/12:30pm 19.0 13.0 -6.6 17 10.2 SSW 17 24 9 13 1022.3 1021.8 0.0
18/12:00pm 19.7 13.8 -5.3 18 10.2 SSW 17 24 9 13 1022.7 1022.3 0.0
18/11:30am 19.6 13.4 -5.3 18 10.2 SW 19 26 10 14 1023.2 1022.8 0.0
18/11:00am 19.1 12.8 -5.7 18 10.0 SW 19 28 10 15 1023.4 1023.0 0.0
18/10:30am 17.9 12.1 -4.7 21 9.2 WSW 17 20 9 11 1023.4 1023.0 0.0
18/10:00am 16.8 12.3 -3.3 25 8.3 WNW 11 15 6 8 1023.6 1023.1 0.0
18/09:30am 15.8 11.3 -3.6 26 7.9 WNW 11 15 6 8 1023.6 1023.1 0.0
18/09:00am 14.9 10.0 -3.0 29 7.3 WNW 13 15 7 8 1023.2 1022.8 0.0
18/08:30am 13.6 9.1 -3.6 30 6.9 WNW 11 15 6 8 1023.2 1022.8 0.0
18/08:00am 12.5 7.9 -3.7 32 6.4 W 11 13 6 7 1022.9 1022.5 0.0
18/07:30am 10.8 6.6 -3.7 36 5.6 WNW 9 9 5 5 1022.6 1022.2 0.0
18/07:00am 10.3 6.6 -4.9 34 5.7 WNW 6 7 3 4 1022.5 1022.1 0.0
18/06:30am 10.6 6.7 -4.6 34 5.8 WNW 7 7 4 4 1022.3 1021.8 0.0
18/06:00am 11.2 7.3 -4.5 33 6.0 NW 7 9 4 5 1022.1 1021.6 0.0
18/05:30am 10.9 8.4 -4.3 34 5.8 CALM 0 0 0 0 1021.9 1021.4 0.0
18/05:00am 9.2 6.8 -3.3 41 4.8 CALM 0 0 0 0 1021.7 1021.3 0.0
18/04:30am 8.2 5.8 -3.3 44 4.4 CALM 0 0 0 0 1021.7 1021.3 0.0
18/04:00am 7.7 5.3 -3.5 45 4.2 CALM 0 0 0 0 1021.6 1021.2 0.0
18/03:30am 8.3 5.9 -3.2 44 4.4 CALM 0 0 0 0 1021.6 1021.2 0.0
18/03:00am 7.6 5.1 -4.2 43 4.3 CALM 0 0 0 0 1021.6 1021.2 0.0
18/02:30am 11.2 8.7 -4.1 34 5.9 CALM 0 0 0 0 1021.5 1021.1 0.0
18/02:00am 11.3 8.0 -4.4 33 6.0 S 4 6 2 3 1021.6 1021.2 0.0
18/01:30am 11.1 7.3 -4.1 34 5.8 S 7 7 4 4 1021.9 1021.4 0.0
18/01:00am 10.9 7.0 -4.3 34 5.8 SSE 7 9 4 5 1022.0 1021.5 0.0
18/12:30am 11.7 8.1 -4.0 33 6.1 SE 6 7 3 4 1021.9 1021.4 0.0
18/12:00am 10.9 7.2 -4.3 34 5.8 SE 6 7 3 4 1021.7 1021.3 0.0
 
Date/Time
EST
Temp
°C
App
Temp
°C
Dew
Point
°C
Rel
Hum
%
Delta-T
°C
Wind Press
QNH
hPa
Press
MSL
hPa
Rain since
9am
mm
Dir  Spd
km/h
Gust
km/h
Spd
kts
Gust
kts
17/11:30pm 8.6 4.4 -3.6 42 4.6 ESE 9 9 5 5 1022.0 1021.5 0.0
17/11:00pm 7.7 3.5 -3.5 45 4.2 E 9 11 5 6 1021.7 1021.3 0.0
17/10:30pm 9.2 5.3 -4.4 38 5.1 ESE 7 9 4 5 1021.6 1021.2 0.0
17/10:00pm 11.8 8.1 -4.3 32 6.2 E 6 6 3 3 1021.9 1021.4 0.0
17/09:30pm 12.0 8.1 -4.6 31 6.4 S 7 11 4 6 1022.0 1021.5 0.0
17/09:00pm 12.2 7.5 -4.8 30 6.5 S 11 15 6 8 1021.9 1021.4 0.0
17/08:30pm 12.6 7.9 -4.9 29 6.7 S 11 17 6 9 1021.9 1021.4 0.0

Other Formats:

Comma delimited format used in spreadsheet applications
http://www.bom.gov.au/fwo/IDQ60801/IDQ60801.95551.axf

JavaScript Object Notation format (JSON) in row-major order
http://www.bom.gov.au/fwo/IDQ60801/IDQ60801.95551.json